sensor_id;sensor_type;location;lat;lon;timestamp;P1;durP1;ratioP1;P2;durP2;ratioP2
3549;SDS011;45572;48.804;8.330;2023-03-01T00:01:16;13.52;;;8.90;;
3549;SDS011;45572;48.804;8.330;2023-03-01T00:03:45;16.40;;;9.40;;
3549;SDS011;45572;48.804;8.330;2023-03-01T00:06:13;15.85;;;7.78;;
3549;SDS011;45572;48.804;8.330;2023-03-01T00:08:41;13.63;;;8.30;;
3549;SDS011;45572;48.804;8.330;2023-03-01T00:11:10;16.35;;;8.70;;
3549;SDS011;45572;48.804;8.330;2023-03-01T00:13:39;16.95;;;9.82;;
3549;SDS011;45572;48.804;8.330;2023-03-01T00:16:09;14.20;;;8.18;;
3549;SDS011;45572;48.804;8.330;2023-03-01T00:18:40;16.98;;;8.40;;
3549;SDS011;45572;48.804;8.330;2023-03-01T00:21:08;16.10;;;7.55;;
3549;SDS011;45572;48.804;8.330;2023-03-01T00:23:36;16.33;;;7.65;;
3549;SDS011;45572;48.804;8.330;2023-03-01T00:26:05;12.43;;;7.63;;
3549;SDS011;45572;48.804;8.330;2023-03-01T00:28:34;15.70;;;7.68;;
3549;SDS011;45572;48.804;8.330;2023-03-01T00:31:03;14.18;;;7.70;;
3549;SDS011;45572;48.804;8.330;2023-03-01T00:33:31;16.98;;;8.57;;
3549;SDS011;45572;48.804;8.330;2023-03-01T00:36:00;16.58;;;9.60;;
3549;SDS011;45572;48.804;8.330;2023-03-01T00:38:29;17.67;;;8.43;;
3549;SDS011;45572;48.804;8.330;2023-03-01T00:41:02;16.92;;;8.85;;
3549;SDS011;45572;48.804;8.330;2023-03-01T00:43:31;15.60;;;8.80;;
3549;SDS011;45572;48.804;8.330;2023-03-01T00:46:02;15.52;;;9.63;;
3549;SDS011;45572;48.804;8.330;2023-03-01T00:48:31;17.58;;;9.10;;
3549;SDS011;45572;48.804;8.330;2023-03-01T00:51:05;13.60;;;8.18;;
3549;SDS011;45572;48.804;8.330;2023-03-01T00:53:34;17.33;;;8.32;;
3549;SDS011;45572;48.804;8.330;2023-03-01T00:56:03;12.55;;;8.98;;
3549;SDS011;45572;48.804;8.330;2023-03-01T00:58:31;16.50;;;8.93;;
3549;SDS011;45572;48.804;8.330;2023-03-01T01:00:59;15.18;;;9.02;;
3549;SDS011;45572;48.804;8.330;2023-03-01T01:03:27;20.50;;;9.85;;
3549;SDS011;45572;48.804;8.330;2023-03-01T01:05:55;17.00;;;8.05;;
3549;SDS011;45572;48.804;8.330;2023-03-01T01:08:24;18.40;;;8.70;;
3549;SDS011;45572;48.804;8.330;2023-03-01T01:10:52;16.88;;;9.90;;
3549;SDS011;45572;48.804;8.330;2023-03-01T01:13:19;13.07;;;9.68;;
3549;SDS011;45572;48.804;8.330;2023-03-01T01:15:47;13.65;;;8.50;;
3549;SDS011;45572;48.804;8.330;2023-03-01T01:18:15;14.45;;;9.40;;
3549;SDS011;45572;48.804;8.330;2023-03-01T01:20:43;17.90;;;9.23;;
3549;SDS011;45572;48.804;8.330;2023-03-01T01:23:10;18.58;;;11.65;;
3549;SDS011;45572;48.804;8.330;2023-03-01T01:25:40;16.17;;;9.82;;
3549;SDS011;45572;48.804;8.330;2023-03-01T01:28:07;14.77;;;8.95;;
3549;SDS011;45572;48.804;8.330;2023-03-01T01:30:35;15.15;;;9.88;;
3549;SDS011;45572;48.804;8.330;2023-03-01T01:33:03;17.58;;;9.13;;
3549;SDS011;45572;48.804;8.330;2023-03-01T01:35:30;20.60;;;8.68;;
3549;SDS011;45572;48.804;8.330;2023-03-01T01:37:58;17.98;;;9.43;;
3549;SDS011;45572;48.804;8.330;2023-03-01T01:40:26;22.75;;;10.73;;
3549;SDS011;45572;48.804;8.330;2023-03-01T01:42:55;18.65;;;11.07;;
3549;SDS011;45572;48.804;8.330;2023-03-01T01:45:26;18.05;;;10.20;;
3549;SDS011;45572;48.804;8.330;2023-03-01T01:47:58;17.75;;;8.70;;
3549;SDS011;45572;48.804;8.330;2023-03-01T01:50:30;16.83;;;9.60;;
3549;SDS011;45572;48.804;8.330;2023-03-01T01:53:05;14.15;;;8.75;;
3549;SDS011;45572;48.804;8.330;2023-03-01T01:55:36;15.82;;;9.88;;
3549;SDS011;45572;48.804;8.330;2023-03-01T01:58:08;19.17;;;10.52;;
3549;SDS011;45572;48.804;8.330;2023-03-01T02:00:40;14.63;;;8.60;;
3549;SDS011;45572;48.804;8.330;2023-03-01T02:03:09;20.63;;;9.75;;
3549;SDS011;45572;48.804;8.330;2023-03-01T02:05:42;13.90;;;7.35;;
3549;SDS011;45572;48.804;8.330;2023-03-01T02:08:20;21.98;;;8.55;;
3549;SDS011;45572;48.804;8.330;2023-03-01T02:10:51;15.25;;;8.95;;
3549;SDS011;45572;48.804;8.330;2023-03-01T02:13:23;16.00;;;8.43;;
3549;SDS011;45572;48.804;8.330;2023-03-01T02:15:50;16.23;;;9.52;;
3549;SDS011;45572;48.804;8.330;2023-03-01T02:18:20;18.67;;;9.65;;
3549;SDS011;45572;48.804;8.330;2023-03-01T02:20:54;14.18;;;10.27;;
3549;SDS011;45572;48.804;8.330;2023-03-01T02:23:30;20.27;;;10.60;;
3549;SDS011;45572;48.804;8.330;2023-03-01T02:26:02;18.85;;;10.13;;
3549;SDS011;45572;48.804;8.330;2023-03-01T02:28:36;16.90;;;9.38;;
3549;SDS011;45572;48.804;8.330;2023-03-01T02:31:06;19.60;;;10.48;;
3549;SDS011;45572;48.804;8.330;2023-03-01T02:33:49;15.38;;;9.40;;
3549;SDS011;45572;48.804;8.330;2023-03-01T02:36:19;18.90;;;9.02;;
3549;SDS011;45572;48.804;8.330;2023-03-01T02:38:49;16.30;;;10.25;;
3549;SDS011;45572;48.804;8.330;2023-03-01T02:41:20;16.23;;;9.88;;
3549;SDS011;45572;48.804;8.330;2023-03-01T02:43:51;17.83;;;9.15;;
3549;SDS011;45572;48.804;8.330;2023-03-01T02:46:21;14.85;;;9.85;;
3549;SDS011;45572;48.804;8.330;2023-03-01T02:48:51;19.38;;;9.95;;
3549;SDS011;45572;48.804;8.330;2023-03-01T02:51:24;20.33;;;11.25;;
3549;SDS011;45572;48.804;8.330;2023-03-01T02:54:01;17.52;;;9.50;;
3549;SDS011;45572;48.804;8.330;2023-03-01T02:56:37;20.42;;;8.98;;
3549;SDS011;45572;48.804;8.330;2023-03-01T02:59:06;20.63;;;10.48;;
3549;SDS011;45572;48.804;8.330;2023-03-01T03:01:36;17.58;;;9.05;;
3549;SDS011;45572;48.804;8.330;2023-03-01T03:04:07;13.73;;;9.07;;
3549;SDS011;45572;48.804;8.330;2023-03-01T03:06:37;26.15;;;8.90;;
3549;SDS011;45572;48.804;8.330;2023-03-01T03:09:05;23.20;;;10.02;;
3549;SDS011;45572;48.804;8.330;2023-03-01T03:11:34;20.27;;;9.65;;
3549;SDS011;45572;48.804;8.330;2023-03-01T03:14:03;15.43;;;8.45;;
3549;SDS011;45572;48.804;8.330;2023-03-01T03:16:32;12.07;;;8.52;;
3549;SDS011;45572;48.804;8.330;2023-03-01T03:18:59;16.65;;;10.32;;
3549;SDS011;45572;48.804;8.330;2023-03-01T03:21:31;18.00;;;9.13;;
3549;SDS011;45572;48.804;8.330;2023-03-01T03:23:59;20.90;;;9.85;;
3549;SDS011;45572;48.804;8.330;2023-03-01T03:26:27;23.23;;;10.23;;
3549;SDS011;45572;48.804;8.330;2023-03-01T03:28:56;19.42;;;10.65;;
3549;SDS011;45572;48.804;8.330;2023-03-01T03:31:24;15.85;;;9.43;;
3549;SDS011;45572;48.804;8.330;2023-03-01T03:33:53;20.05;;;11.02;;
3549;SDS011;45572;48.804;8.330;2023-03-01T03:36:22;24.50;;;9.60;;
3549;SDS011;45572;48.804;8.330;2023-03-01T03:38:51;22.27;;;10.68;;
3549;SDS011;45572;48.804;8.330;2023-03-01T03:41:19;17.65;;;9.68;;
3549;SDS011;45572;48.804;8.330;2023-03-01T03:43:46;15.80;;;9.45;;
3549;SDS011;45572;48.804;8.330;2023-03-01T03:46:15;16.73;;;10.00;;
3549;SDS011;45572;48.804;8.330;2023-03-01T03:48:43;15.52;;;9.50;;
3549;SDS011;45572;48.804;8.330;2023-03-01T03:51:14;18.92;;;9.70;;
3549;SDS011;45572;48.804;8.330;2023-03-01T03:53:43;16.15;;;10.10;;
3549;SDS011;45572;48.804;8.330;2023-03-01T03:56:11;21.30;;;11.60;;
3549;SDS011;45572;48.804;8.330;2023-03-01T03:58:39;17.95;;;10.57;;
3549;SDS011;45572;48.804;8.330;2023-03-01T04:01:07;20.70;;;11.00;;
3549;SDS011;45572;48.804;8.330;2023-03-01T04:03:35;21.30;;;10.68;;
3549;SDS011;45572;48.804;8.330;2023-03-01T04:06:03;18.92;;;10.70;;
3549;SDS011;45572;48.804;8.330;2023-03-01T04:08:33;24.38;;;10.85;;
3549;SDS011;45572;48.804;8.330;2023-03-01T04:11:01;22.75;;;11.98;;
3549;SDS011;45572;48.804;8.330;2023-03-01T04:13:50;16.40;;;8.88;;
3549;SDS011;45572;48.804;8.330;2023-03-01T04:16:19;18.05;;;10.27;;
3549;SDS011;45572;48.804;8.330;2023-03-01T04:18:47;19.40;;;11.27;;
3549;SDS011;45572;48.804;8.330;2023-03-01T04:21:15;21.35;;;11.02;;
3549;SDS011;45572;48.804;8.330;2023-03-01T04:23:44;22.10;;;11.02;;
3549;SDS011;45572;48.804;8.330;2023-03-01T04:26:12;17.55;;;10.40;;
3549;SDS011;45572;48.804;8.330;2023-03-01T04:28:41;21.23;;;11.20;;
3549;SDS011;45572;48.804;8.330;2023-03-01T04:31:12;22.45;;;11.02;;
3549;SDS011;45572;48.804;8.330;2023-03-01T04:33:43;15.82;;;10.20;;
3549;SDS011;45572;48.804;8.330;2023-03-01T04:36:12;25.63;;;11.43;;
3549;SDS011;45572;48.804;8.330;2023-03-01T04:38:42;21.30;;;10.88;;
3549;SDS011;45572;48.804;8.330;2023-03-01T04:41:15;23.38;;;13.05;;
3549;SDS011;45572;48.804;8.330;2023-03-01T04:43:44;27.70;;;13.27;;
3549;SDS011;45572;48.804;8.330;2023-03-01T04:46:12;21.75;;;10.70;;
3549;SDS011;45572;48.804;8.330;2023-03-01T04:48:44;26.63;;;12.85;;
3549;SDS011;45572;48.804;8.330;2023-03-01T04:51:13;24.60;;;11.77;;
3549;SDS011;45572;48.804;8.330;2023-03-01T04:53:42;21.45;;;12.50;;
3549;SDS011;45572;48.804;8.330;2023-03-01T04:56:11;21.73;;;11.50;;
3549;SDS011;45572;48.804;8.330;2023-03-01T04:58:41;20.85;;;10.90;;
3549;SDS011;45572;48.804;8.330;2023-03-01T05:01:09;24.63;;;13.00;;
3549;SDS011;45572;48.804;8.330;2023-03-01T05:03:42;18.90;;;11.00;;
3549;SDS011;45572;48.804;8.330;2023-03-01T05:06:11;26.38;;;13.90;;
3549;SDS011;45572;48.804;8.330;2023-03-01T05:08:39;18.50;;;12.10;;
3549;SDS011;45572;48.804;8.330;2023-03-01T05:11:08;21.00;;;12.10;;
3549;SDS011;45572;48.804;8.330;2023-03-01T05:13:36;27.77;;;12.10;;
3549;SDS011;45572;48.804;8.330;2023-03-01T05:16:07;19.90;;;12.63;;
3549;SDS011;45572;48.804;8.330;2023-03-01T05:18:37;23.10;;;11.02;;
3549;SDS011;45572;48.804;8.330;2023-03-01T05:21:06;18.90;;;11.23;;
3549;SDS011;45572;48.804;8.330;2023-03-01T05:23:35;20.95;;;11.07;;
3549;SDS011;45572;48.804;8.330;2023-03-01T05:26:03;16.80;;;10.30;;
3549;SDS011;45572;48.804;8.330;2023-03-01T05:28:47;25.88;;;14.13;;
3549;SDS011;45572;48.804;8.330;2023-03-01T05:31:17;19.58;;;10.50;;
3549;SDS011;45572;48.804;8.330;2023-03-01T05:33:46;22.67;;;11.50;;
3549;SDS011;45572;48.804;8.330;2023-03-01T05:36:17;23.33;;;11.35;;
3549;SDS011;45572;48.804;8.330;2023-03-01T05:38:45;23.83;;;12.38;;
3549;SDS011;45572;48.804;8.330;2023-03-01T05:41:13;24.30;;;11.25;;
3549;SDS011;45572;48.804;8.330;2023-03-01T05:43:42;22.80;;;13.02;;
3549;SDS011;45572;48.804;8.330;2023-03-01T05:46:11;23.90;;;12.45;;
3549;SDS011;45572;48.804;8.330;2023-03-01T05:48:42;23.00;;;12.75;;
3549;SDS011;45572;48.804;8.330;2023-03-01T05:51:10;18.30;;;12.70;;
3549;SDS011;45572;48.804;8.330;2023-03-01T05:53:38;24.15;;;12.63;;
3549;SDS011;45572;48.804;8.330;2023-03-01T05:56:06;24.42;;;12.55;;
3549;SDS011;45572;48.804;8.330;2023-03-01T05:58:34;23.48;;;11.32;;
3549;SDS011;45572;48.804;8.330;2023-03-01T06:01:02;19.48;;;10.85;;
3549;SDS011;45572;48.804;8.330;2023-03-01T06:03:30;17.65;;;11.15;;
3549;SDS011;45572;48.804;8.330;2023-03-01T06:05:59;23.52;;;14.57;;
3549;SDS011;45572;48.804;8.330;2023-03-01T06:08:28;17.38;;;11.13;;
3549;SDS011;45572;48.804;8.330;2023-03-01T06:10:56;20.50;;;11.52;;
3549;SDS011;45572;48.804;8.330;2023-03-01T06:13:27;22.15;;;12.32;;
3549;SDS011;45572;48.804;8.330;2023-03-01T06:15:55;25.38;;;13.43;;
3549;SDS011;45572;48.804;8.330;2023-03-01T06:18:23;25.02;;;12.95;;
3549;SDS011;45572;48.804;8.330;2023-03-01T06:20:52;18.48;;;11.32;;
3549;SDS011;45572;48.804;8.330;2023-03-01T06:23:22;27.05;;;12.98;;
3549;SDS011;45572;48.804;8.330;2023-03-01T06:25:50;21.35;;;12.45;;
3549;SDS011;45572;48.804;8.330;2023-03-01T06:28:18;22.58;;;11.70;;
3549;SDS011;45572;48.804;8.330;2023-03-01T06:30:46;25.42;;;14.77;;
3549;SDS011;45572;48.804;8.330;2023-03-01T06:33:13;23.83;;;12.68;;
3549;SDS011;45572;48.804;8.330;2023-03-01T06:35:41;22.13;;;13.13;;
3549;SDS011;45572;48.804;8.330;2023-03-01T06:38:09;23.77;;;12.48;;
3549;SDS011;45572;48.804;8.330;2023-03-01T06:40:38;22.70;;;11.88;;
3549;SDS011;45572;48.804;8.330;2023-03-01T06:43:06;26.92;;;14.05;;
3549;SDS011;45572;48.804;8.330;2023-03-01T06:45:34;24.08;;;13.07;;
3549;SDS011;45572;48.804;8.330;2023-03-01T06:48:03;20.00;;;11.70;;
3549;SDS011;45572;48.804;8.330;2023-03-01T06:50:31;29.58;;;13.30;;
3549;SDS011;45572;48.804;8.330;2023-03-01T06:53:00;19.40;;;11.88;;
3549;SDS011;45572;48.804;8.330;2023-03-01T06:55:28;26.55;;;12.55;;
3549;SDS011;45572;48.804;8.330;2023-03-01T06:57:57;22.63;;;13.38;;
3549;SDS011;45572;48.804;8.330;2023-03-01T07:00:26;31.65;;;15.77;;
3549;SDS011;45572;48.804;8.330;2023-03-01T07:02:56;20.33;;;12.68;;
3549;SDS011;45572;48.804;8.330;2023-03-01T07:05:29;22.10;;;12.50;;
3549;SDS011;45572;48.804;8.330;2023-03-01T07:07:57;21.65;;;11.40;;
3549;SDS011;45572;48.804;8.330;2023-03-01T07:10:24;24.80;;;13.90;;
3549;SDS011;45572;48.804;8.330;2023-03-01T07:12:56;22.40;;;11.95;;
3549;SDS011;45572;48.804;8.330;2023-03-01T07:15:25;29.55;;;14.57;;
3549;SDS011;45572;48.804;8.330;2023-03-01T07:17:54;33.95;;;12.52;;
3549;SDS011;45572;48.804;8.330;2023-03-01T07:20:22;20.17;;;13.18;;
3549;SDS011;45572;48.804;8.330;2023-03-01T07:22:51;26.10;;;13.00;;
3549;SDS011;45572;48.804;8.330;2023-03-01T07:25:19;22.65;;;12.02;;
3549;SDS011;45572;48.804;8.330;2023-03-01T07:27:50;22.50;;;12.98;;
3549;SDS011;45572;48.804;8.330;2023-03-01T07:30:22;29.60;;;13.20;;
3549;SDS011;45572;48.804;8.330;2023-03-01T07:32:55;22.30;;;12.23;;
3549;SDS011;45572;48.804;8.330;2023-03-01T07:35:24;17.55;;;11.45;;
3549;SDS011;45572;48.804;8.330;2023-03-01T07:37:56;19.83;;;11.48;;
3549;SDS011;45572;48.804;8.330;2023-03-01T07:40:23;21.27;;;10.93;;
3549;SDS011;45572;48.804;8.330;2023-03-01T07:42:54;16.35;;;10.73;;
3549;SDS011;45572;48.804;8.330;2023-03-01T07:45:24;24.17;;;12.00;;
3549;SDS011;45572;48.804;8.330;2023-03-01T07:47:54;19.55;;;10.90;;
3549;SDS011;45572;48.804;8.330;2023-03-01T07:50:25;20.75;;;11.98;;
3549;SDS011;45572;48.804;8.330;2023-03-01T07:52:53;17.48;;;10.70;;
3549;SDS011;45572;48.804;8.330;2023-03-01T07:55:23;17.88;;;9.57;;
3549;SDS011;45572;48.804;8.330;2023-03-01T07:57:51;18.40;;;10.32;;
3549;SDS011;45572;48.804;8.330;2023-03-01T08:00:19;15.23;;;11.18;;
3549;SDS011;45572;48.804;8.330;2023-03-01T08:02:48;16.77;;;10.68;;
3549;SDS011;45572;48.804;8.330;2023-03-01T08:05:16;20.08;;;10.75;;
3549;SDS011;45572;48.804;8.330;2023-03-01T08:07:44;18.87;;;12.10;;
3549;SDS011;45572;48.804;8.330;2023-03-01T08:10:11;15.30;;;10.00;;
3549;SDS011;45572;48.804;8.330;2023-03-01T08:12:39;18.90;;;11.60;;
3549;SDS011;45572;48.804;8.330;2023-03-01T08:15:07;20.33;;;12.10;;
3549;SDS011;45572;48.804;8.330;2023-03-01T08:17:36;16.63;;;11.40;;
3549;SDS011;45572;48.804;8.330;2023-03-01T08:20:05;18.93;;;12.10;;
3549;SDS011;45572;48.804;8.330;2023-03-01T08:22:33;21.98;;;12.68;;
3549;SDS011;45572;48.804;8.330;2023-03-01T08:25:01;18.60;;;12.10;;
3549;SDS011;45572;48.804;8.330;2023-03-01T08:27:29;24.00;;;11.57;;
3549;SDS011;45572;48.804;8.330;2023-03-01T08:29:56;24.83;;;12.32;;
3549;SDS011;45572;48.804;8.330;2023-03-01T08:32:24;18.17;;;11.45;;
3549;SDS011;45572;48.804;8.330;2023-03-01T08:34:52;19.50;;;12.17;;
3549;SDS011;45572;48.804;8.330;2023-03-01T08:37:21;19.63;;;11.10;;
3549;SDS011;45572;48.804;8.330;2023-03-01T08:39:49;17.40;;;10.40;;
3549;SDS011;45572;48.804;8.330;2023-03-01T08:42:16;15.40;;;11.67;;
3549;SDS011;45572;48.804;8.330;2023-03-01T08:44:44;19.60;;;12.30;;
3549;SDS011;45572;48.804;8.330;2023-03-01T08:47:12;13.67;;;10.57;;
3549;SDS011;45572;48.804;8.330;2023-03-01T08:49:40;17.83;;;10.73;;
3549;SDS011;45572;48.804;8.330;2023-03-01T08:52:08;20.00;;;10.97;;
3549;SDS011;45572;48.804;8.330;2023-03-01T08:54:37;20.40;;;11.23;;
3549;SDS011;45572;48.804;8.330;2023-03-01T08:57:05;20.10;;;13.70;;
3549;SDS011;45572;48.804;8.330;2023-03-01T08:59:33;19.50;;;12.13;;
3549;SDS011;45572;48.804;8.330;2023-03-01T09:02:03;20.43;;;12.23;;
3549;SDS011;45572;48.804;8.330;2023-03-01T09:04:31;16.80;;;11.50;;
3549;SDS011;45572;48.804;8.330;2023-03-01T09:06:59;18.23;;;12.17;;
3549;SDS011;45572;48.804;8.330;2023-03-01T09:09:27;16.50;;;10.33;;
3549;SDS011;45572;48.804;8.330;2023-03-01T09:11:56;22.73;;;11.67;;
3549;SDS011;45572;48.804;8.330;2023-03-01T09:14:24;15.10;;;11.17;;
3549;SDS011;45572;48.804;8.330;2023-03-01T09:16:52;18.77;;;11.30;;
3549;SDS011;45572;48.804;8.330;2023-03-01T09:19:20;20.07;;;11.77;;
3549;SDS011;45572;48.804;8.330;2023-03-01T09:21:52;19.30;;;12.20;;
3549;SDS011;45572;48.804;8.330;2023-03-01T09:24:24;15.97;;;10.80;;
3549;SDS011;45572;48.804;8.330;2023-03-01T09:26:53;16.43;;;11.70;;
3549;SDS011;45572;48.804;8.330;2023-03-01T09:29:23;19.33;;;11.80;;
3549;SDS011;45572;48.804;8.330;2023-03-01T09:31:52;18.63;;;11.97;;
3549;SDS011;45572;48.804;8.330;2023-03-01T09:34:21;17.47;;;12.27;;
3549;SDS011;45572;48.804;8.330;2023-03-01T09:36:49;17.20;;;11.80;;
3549;SDS011;45572;48.804;8.330;2023-03-01T09:39:17;18.10;;;12.20;;
3549;SDS011;45572;48.804;8.330;2023-03-01T09:41:47;21.97;;;12.03;;
3549;SDS011;45572;48.804;8.330;2023-03-01T09:44:26;19.03;;;12.80;;
3549;SDS011;45572;48.804;8.330;2023-03-01T09:46:58;19.33;;;11.43;;
3549;SDS011;45572;48.804;8.330;2023-03-01T09:49:27;19.57;;;12.27;;
3549;SDS011;45572;48.804;8.330;2023-03-01T09:51:58;15.90;;;11.00;;
3549;SDS011;45572;48.804;8.330;2023-03-01T09:54:30;20.87;;;12.53;;
3549;SDS011;45572;48.804;8.330;2023-03-01T09:57:03;23.70;;;13.27;;
3549;SDS011;45572;48.804;8.330;2023-03-01T09:59:43;19.97;;;11.83;;
3549;SDS011;45572;48.804;8.330;2023-03-01T10:02:21;20.17;;;13.40;;
3549;SDS011;45572;48.804;8.330;2023-03-01T10:04:54;19.57;;;10.90;;
3549;SDS011;45572;48.804;8.330;2023-03-01T10:07:30;20.93;;;12.50;;
3549;SDS011;45572;48.804;8.330;2023-03-01T10:10:05;20.03;;;11.00;;
3549;SDS011;45572;48.804;8.330;2023-03-01T10:12:35;20.53;;;13.07;;
3549;SDS011;45572;48.804;8.330;2023-03-01T10:15:09;18.13;;;11.50;;
3549;SDS011;45572;48.804;8.330;2023-03-01T10:17:41;19.00;;;11.97;;
3549;SDS011;45572;48.804;8.330;2023-03-01T10:20:15;24.10;;;12.97;;
3549;SDS011;45572;48.804;8.330;2023-03-01T10:22:45;21.33;;;12.57;;
3549;SDS011;45572;48.804;8.330;2023-03-01T10:25:20;18.60;;;11.77;;
3549;SDS011;45572;48.804;8.330;2023-03-01T10:27:59;20.83;;;12.77;;
3549;SDS011;45572;48.804;8.330;2023-03-01T10:30:34;20.70;;;12.23;;
3549;SDS011;45572;48.804;8.330;2023-03-01T10:33:06;22.30;;;12.33;;
3549;SDS011;45572;48.804;8.330;2023-03-01T10:35:43;17.23;;;12.03;;
3549;SDS011;45572;48.804;8.330;2023-03-01T10:38:11;23.97;;;13.43;;
3549;SDS011;45572;48.804;8.330;2023-03-01T10:40:50;22.20;;;13.53;;
3549;SDS011;45572;48.804;8.330;2023-03-01T10:43:19;20.30;;;13.60;;
3549;SDS011;45572;48.804;8.330;2023-03-01T10:45:48;24.03;;;13.03;;
3549;SDS011;45572;48.804;8.330;2023-03-01T10:48:17;21.77;;;13.23;;
3549;SDS011;45572;48.804;8.330;2023-03-01T10:50:49;21.97;;;12.80;;
3549;SDS011;45572;48.804;8.330;2023-03-01T10:53:22;20.83;;;13.30;;
3549;SDS011;45572;48.804;8.330;2023-03-01T10:55:58;20.77;;;12.20;;
3549;SDS011;45572;48.804;8.330;2023-03-01T10:58:28;22.70;;;12.47;;
3549;SDS011;45572;48.804;8.330;2023-03-01T11:01:01;19.57;;;13.03;;
3549;SDS011;45572;48.804;8.330;2023-03-01T11:03:32;24.93;;;13.63;;
3549;SDS011;45572;48.804;8.330;2023-03-01T11:06:03;19.90;;;12.90;;
3549;SDS011;45572;48.804;8.330;2023-03-01T11:08:37;25.33;;;13.03;;
3549;SDS011;45572;48.804;8.330;2023-03-01T11:11:18;23.03;;;13.80;;
3549;SDS011;45572;48.804;8.330;2023-03-01T11:13:55;21.10;;;14.03;;
3549;SDS011;45572;48.804;8.330;2023-03-01T11:16:27;18.50;;;12.70;;
3549;SDS011;45572;48.804;8.330;2023-03-01T11:18:59;20.30;;;12.50;;
3549;SDS011;45572;48.804;8.330;2023-03-01T11:21:32;19.83;;;13.07;;
3549;SDS011;45572;48.804;8.330;2023-03-01T11:24:02;22.13;;;13.50;;
3549;SDS011;45572;48.804;8.330;2023-03-01T11:26:34;21.03;;;13.90;;
3549;SDS011;45572;48.804;8.330;2023-03-01T11:29:11;22.13;;;13.23;;
3549;SDS011;45572;48.804;8.330;2023-03-01T11:31:45;20.90;;;14.53;;
3549;SDS011;45572;48.804;8.330;2023-03-01T11:34:24;26.07;;;14.47;;
3549;SDS011;45572;48.804;8.330;2023-03-01T11:37:08;22.90;;;13.03;;
3549;SDS011;45572;48.804;8.330;2023-03-01T11:39:46;22.90;;;13.10;;
3549;SDS011;45572;48.804;8.330;2023-03-01T11:42:31;23.03;;;13.30;;
3549;SDS011;45572;48.804;8.330;2023-03-01T11:45:12;20.13;;;13.07;;
3549;SDS011;45572;48.804;8.330;2023-03-01T11:47:45;24.10;;;13.87;;
3549;SDS011;45572;48.804;8.330;2023-03-01T11:50:26;22.87;;;12.83;;
3549;SDS011;45572;48.804;8.330;2023-03-01T11:53:02;20.10;;;13.07;;
3549;SDS011;45572;48.804;8.330;2023-03-01T11:55:48;19.97;;;13.00;;
3549;SDS011;45572;48.804;8.330;2023-03-01T11:58:29;22.13;;;13.90;;
3549;SDS011;45572;48.804;8.330;2023-03-01T12:01:15;22.50;;;14.13;;
3549;SDS011;45572;48.804;8.330;2023-03-01T12:04:02;25.60;;;14.50;;
3549;SDS011;45572;48.804;8.330;2023-03-01T12:06:55;23.67;;;13.00;;
3549;SDS011;45572;48.804;8.330;2023-03-01T12:09:28;22.17;;;14.02;;
3549;SDS011;45572;48.804;8.330;2023-03-01T12:15:00;27.45;;;14.50;;
3549;SDS011;45572;48.804;8.330;2023-03-01T12:17:50;25.05;;;14.93;;
3549;SDS011;45572;48.804;8.330;2023-03-01T12:20:35;21.25;;;12.85;;
3549;SDS011;45572;48.804;8.330;2023-03-01T12:23:20;22.25;;;12.13;;
3549;SDS011;45572;48.804;8.330;2023-03-01T12:26:02;27.40;;;14.82;;
3549;SDS011;45572;48.804;8.330;2023-03-01T12:28:45;23.98;;;12.80;;
3549;SDS011;45572;48.804;8.330;2023-03-01T12:31:30;24.67;;;14.65;;
3549;SDS011;45572;48.804;8.330;2023-03-01T12:34:08;22.15;;;13.85;;
3549;SDS011;45572;48.804;8.330;2023-03-01T12:36:56;24.08;;;13.20;;
3549;SDS011;45572;48.804;8.330;2023-03-01T12:39:41;26.55;;;14.38;;
3549;SDS011;45572;48.804;8.330;2023-03-01T12:42:17;24.25;;;14.18;;
3549;SDS011;45572;48.804;8.330;2023-03-01T12:45:02;18.55;;;11.52;;
3549;SDS011;45572;48.804;8.330;2023-03-01T12:47:57;23.60;;;12.38;;
3549;SDS011;45572;48.804;8.330;2023-03-01T12:50:37;23.50;;;13.15;;
3549;SDS011;45572;48.804;8.330;2023-03-01T12:53:14;22.60;;;13.88;;
3549;SDS011;45572;48.804;8.330;2023-03-01T12:55:49;22.67;;;12.93;;
3549;SDS011;45572;48.804;8.330;2023-03-01T12:58:21;18.85;;;12.07;;
3549;SDS011;45572;48.804;8.330;2023-03-01T13:01:08;19.05;;;13.38;;
3549;SDS011;45572;48.804;8.330;2023-03-01T13:03:56;22.95;;;14.23;;
3549;SDS011;45572;48.804;8.330;2023-03-01T13:06:35;21.92;;;12.45;;
3549;SDS011;45572;48.804;8.330;2023-03-01T13:09:17;24.77;;;12.82;;
3549;SDS011;45572;48.804;8.330;2023-03-01T13:11:51;21.42;;;13.40;;
3549;SDS011;45572;48.804;8.330;2023-03-01T13:17:02;26.27;;;13.38;;
3549;SDS011;45572;48.804;8.330;2023-03-01T13:19:30;23.15;;;13.57;;
3549;SDS011;45572;48.804;8.330;2023-03-01T13:21:58;22.50;;;13.30;;
3549;SDS011;45572;48.804;8.330;2023-03-01T13:24:28;24.42;;;13.32;;
3549;SDS011;45572;48.804;8.330;2023-03-01T13:27:11;24.88;;;13.55;;
3549;SDS011;45572;48.804;8.330;2023-03-01T13:29:56;27.13;;;13.35;;
3549;SDS011;45572;48.804;8.330;2023-03-01T13:32:26;20.90;;;11.60;;
3549;SDS011;45572;48.804;8.330;2023-03-01T13:41:06;21.67;;;12.50;;
3549;SDS011;45572;48.804;8.330;2023-03-01T13:43:36;23.85;;;13.45;;
3549;SDS011;45572;48.804;8.330;2023-03-01T13:46:09;19.92;;;11.98;;
3549;SDS011;45572;48.804;8.330;2023-03-01T13:48:42;21.25;;;12.70;;
3549;SDS011;45572;48.804;8.330;2023-03-01T13:51:13;19.85;;;12.45;;
3549;SDS011;45572;48.804;8.330;2023-03-01T13:53:43;21.98;;;13.07;;
3549;SDS011;45572;48.804;8.330;2023-03-01T13:56:17;36.53;;;13.25;;
3549;SDS011;45572;48.804;8.330;2023-03-01T13:58:48;25.88;;;14.25;;
3549;SDS011;45572;48.804;8.330;2023-03-01T14:01:22;21.92;;;12.60;;
3549;SDS011;45572;48.804;8.330;2023-03-01T14:04:03;24.40;;;13.10;;
3549;SDS011;45572;48.804;8.330;2023-03-01T14:06:47;22.02;;;13.13;;
3549;SDS011;45572;48.804;8.330;2023-03-01T14:09:18;25.73;;;13.85;;
3549;SDS011;45572;48.804;8.330;2023-03-01T14:14:46;27.38;;;15.43;;
3549;SDS011;45572;48.804;8.330;2023-03-01T14:17:23;23.23;;;14.13;;
3549;SDS011;45572;48.804;8.330;2023-03-01T14:20:11;23.85;;;13.27;;
3549;SDS011;45572;48.804;8.330;2023-03-01T14:22:43;22.70;;;12.65;;
3549;SDS011;45572;48.804;8.330;2023-03-01T14:25:16;25.20;;;14.00;;
3549;SDS011;45572;48.804;8.330;2023-03-01T14:27:52;20.80;;;13.20;;
3549;SDS011;45572;48.804;8.330;2023-03-01T14:30:25;21.55;;;12.63;;
3549;SDS011;45572;48.804;8.330;2023-03-01T14:32:57;24.58;;;15.38;;
3549;SDS011;45572;48.804;8.330;2023-03-01T14:35:27;20.13;;;13.02;;
3549;SDS011;45572;48.804;8.330;2023-03-01T14:37:56;22.08;;;13.35;;
3549;SDS011;45572;48.804;8.330;2023-03-01T14:40:25;22.08;;;13.25;;
3549;SDS011;45572;48.804;8.330;2023-03-01T14:42:56;23.73;;;14.25;;
3549;SDS011;45572;48.804;8.330;2023-03-01T14:45:27;21.80;;;12.93;;
3549;SDS011;45572;48.804;8.330;2023-03-01T14:47:58;21.92;;;13.45;;
3549;SDS011;45572;48.804;8.330;2023-03-01T14:50:29;35.88;;;15.82;;
3549;SDS011;45572;48.804;8.330;2023-03-01T14:52:59;27.92;;;12.80;;
3549;SDS011;45572;48.804;8.330;2023-03-01T14:55:29;21.90;;;13.32;;
3549;SDS011;45572;48.804;8.330;2023-03-01T14:58:04;26.75;;;14.55;;
3549;SDS011;45572;48.804;8.330;2023-03-01T15:00:36;23.13;;;13.15;;
3549;SDS011;45572;48.804;8.330;2023-03-01T15:03:06;25.25;;;13.30;;
3549;SDS011;45572;48.804;8.330;2023-03-01T15:05:40;23.73;;;14.05;;
3549;SDS011;45572;48.804;8.330;2023-03-01T15:08:11;21.38;;;12.73;;
3549;SDS011;45572;48.804;8.330;2023-03-01T15:10:55;24.83;;;13.80;;
3549;SDS011;45572;48.804;8.330;2023-03-01T15:13:28;22.30;;;12.70;;
3549;SDS011;45572;48.804;8.330;2023-03-01T15:16:12;25.90;;;13.60;;
3549;SDS011;45572;48.804;8.330;2023-03-01T15:18:45;23.90;;;14.10;;